Terminal Aerodrome Forecast
Issued by NWS Bismarck, ND

Home | Current Version | Previous Version | Text Only | Print | Product List | Glossary On
Versions: 1 2 3 4 5 6 7 8 9 10 11 12 13 14 15 16 17 18 19 20 21 22 23
022
FTUS43 KBIS 241130 AAD
TAFBIS
TAF AMD
KBIS 241130Z 2412/2512 01004KT 6SM BR SCT025
     FM241500 03005KT P6SM SCT025
     FM242100 05007KT P6SM SCT100
     FM250000 08007KT P6SM SKC
     FM250800 13006KT P6SM SCT090=

USA.gov is the U.S. government's official web portal to all federal, state and local government web resources and services.